sensor_id;sensor_type;location;lat;lon;timestamp;P1;P2;P0
84339;PMS7003;74521;45.618;5.212;2023-12-20T00:02:02;12.25;7.25;5.75
84339;PMS7003;74521;45.618;5.212;2023-12-20T00:04:29;9.75;7.00;4.50
84339;PMS7003;74521;45.618;5.212;2023-12-20T00:06:56;8.50;8.00;6.00
84339;PMS7003;74521;45.618;5.212;2023-12-20T00:09:23;9.75;9.00;6.75
84339;PMS7003;74521;45.618;5.212;2023-12-20T00:11:49;8.00;7.00;6.00
84339;PMS7003;74521;45.618;5.212;2023-12-20T00:14:16;12.25;9.75;7.75
84339;PMS7003;74521;45.618;5.212;2023-12-20T00:16:44;8.25;8.25;6.00
84339;PMS7003;74521;45.618;5.212;2023-12-20T00:19:10;8.50;5.75;4.00
84339;PMS7003;74521;45.618;5.212;2023-12-20T00:21:37;6.75;6.75;5.00
84339;PMS7003;74521;45.618;5.212;2023-12-20T00:24:04;6.50;6.50;4.50
84339;PMS7003;74521;45.618;5.212;2023-12-20T00:26:31;10.00;7.50;5.00
84339;PMS7003;74521;45.618;5.212;2023-12-20T00:28:58;10.25;7.00;6.00
84339;PMS7003;74521;45.618;5.212;2023-12-20T00:31:24;9.00;9.00;6.00
84339;PMS7003;74521;45.618;5.212;2023-12-20T00:33:52;10.25;7.75;6.00
84339;PMS7003;74521;45.618;5.212;2023-12-20T00:36:19;10.00;7.25;5.00
84339;PMS7003;74521;45.618;5.212;2023-12-20T00:38:46;7.75;7.75;5.75
84339;PMS7003;74521;45.618;5.212;2023-12-20T00:41:12;8.00;6.25;5.00
84339;PMS7003;74521;45.618;5.212;2023-12-20T00:43:39;9.50;8.50;5.25
84339;PMS7003;74521;45.618;5.212;2023-12-20T00:46:06;10.75;7.50;5.25
84339;PMS7003;74521;45.618;5.212;2023-12-20T00:48:32;17.00;8.50;6.00
84339;PMS7003;74521;45.618;5.212;2023-12-20T00:51:00;7.75;5.00;4.00
84339;PMS7003;74521;45.618;5.212;2023-12-20T00:53:27;10.75;9.00;6.25
84339;PMS7003;74521;45.618;5.212;2023-12-20T00:55:54;11.25;7.25;5.00
84339;PMS7003;74521;45.618;5.212;2023-12-20T00:58:21;12.50;9.00;5.75
84339;PMS7003;74521;45.618;5.212;2023-12-20T01:00:47;9.75;8.00;5.75
84339;PMS7003;74521;45.618;5.212;2023-12-20T01:03:14;10.50;8.50;6.00
84339;PMS7003;74521;45.618;5.212;2023-12-20T01:05:40;6.75;6.75;5.00
84339;PMS7003;74521;45.618;5.212;2023-12-20T01:08:08;10.25;8.75;6.50
84339;PMS7003;74521;45.618;5.212;2023-12-20T01:10:35;7.00;7.00;4.00
84339;PMS7003;74521;45.618;5.212;2023-12-20T01:13:02;13.50;7.50;4.75
84339;PMS7003;74521;45.618;5.212;2023-12-20T01:15:28;8.25;7.75;5.00
84339;PMS7003;74521;45.618;5.212;2023-12-20T01:17:55;12.00;9.00;5.00
84339;PMS7003;74521;45.618;5.212;2023-12-20T01:20:24;9.00;8.75;6.00
84339;PMS7003;74521;45.618;5.212;2023-12-20T01:22:50;9.00;7.00;5.00
84339;PMS7003;74521;45.618;5.212;2023-12-20T01:25:19;8.00;7.50;6.50
84339;PMS7003;74521;45.618;5.212;2023-12-20T01:27:45;8.75;7.75;5.00
84339;PMS7003;74521;45.618;5.212;2023-12-20T01:30:12;9.00;8.25;5.50
84339;PMS7003;74521;45.618;5.212;2023-12-20T01:32:39;8.25;8.00;5.75
84339;PMS7003;74521;45.618;5.212;2023-12-20T01:35:06;9.00;8.00;5.75
84339;PMS7003;74521;45.618;5.212;2023-12-20T01:37:33;16.50;8.25;5.25
84339;PMS7003;74521;45.618;5.212;2023-12-20T01:40:00;8.00;7.50;5.00
84339;PMS7003;74521;45.618;5.212;2023-12-20T01:42:28;10.25;8.00;6.00
84339;PMS7003;74521;45.618;5.212;2023-12-20T01:44:55;10.50;8.00;6.00
84339;PMS7003;74521;45.618;5.212;2023-12-20T01:47:22;9.50;8.25;6.00
84339;PMS7003;74521;45.618;5.212;2023-12-20T01:49:48;6.50;6.50;5.00
84339;PMS7003;74521;45.618;5.212;2023-12-20T01:52:15;10.75;7.00;5.00
84339;PMS7003;74521;45.618;5.212;2023-12-20T01:54:43;10.50;7.75;5.75
84339;PMS7003;74521;45.618;5.212;2023-12-20T01:57:10;10.25;6.25;4.25
84339;PMS7003;74521;45.618;5.212;2023-12-20T01:59:38;11.75;8.50;6.75
84339;PMS7003;74521;45.618;5.212;2023-12-20T02:02:06;7.75;7.00;5.00
84339;PMS7003;74521;45.618;5.212;2023-12-20T02:04:33;13.50;8.00;4.25
84339;PMS7003;74521;45.618;5.212;2023-12-20T02:07:00;9.50;8.00;5.00
84339;PMS7003;74521;45.618;5.212;2023-12-20T02:09:30;9.25;7.25;6.00
84339;PMS7003;74521;45.618;5.212;2023-12-20T02:11:57;7.00;7.00;5.00
84339;PMS7003;74521;45.618;5.212;2023-12-20T02:14:23;8.25;6.50;4.50
84339;PMS7003;74521;45.618;5.212;2023-12-20T02:16:51;8.50;5.00;4.00
84339;PMS7003;74521;45.618;5.212;2023-12-20T02:19:18;8.75;6.00;4.00
84339;PMS7003;74521;45.618;5.212;2023-12-20T02:21:47;9.25;7.75;5.75
84339;PMS7003;74521;45.618;5.212;2023-12-20T02:24:14;7.75;6.50;5.25
84339;PMS7003;74521;45.618;5.212;2023-12-20T02:26:42;7.25;5.50;4.25
84339;PMS7003;74521;45.618;5.212;2023-12-20T02:29:09;7.75;7.50;5.00
84339;PMS7003;74521;45.618;5.212;2023-12-20T02:31:36;7.75;6.75;5.25
84339;PMS7003;74521;45.618;5.212;2023-12-20T02:34:03;7.25;7.25;6.00
84339;PMS7003;74521;45.618;5.212;2023-12-20T02:36:29;7.75;6.25;4.75
84339;PMS7003;74521;45.618;5.212;2023-12-20T02:38:58;8.25;7.00;4.75
84339;PMS7003;74521;45.618;5.212;2023-12-20T02:41:25;11.75;6.25;5.00
84339;PMS7003;74521;45.618;5.212;2023-12-20T02:43:51;7.00;6.00;4.00
84339;PMS7003;74521;45.618;5.212;2023-12-20T02:46:18;7.75;6.75;5.50
84339;PMS7003;74521;45.618;5.212;2023-12-20T02:48:45;9.50;7.00;4.75
84339;PMS7003;74521;45.618;5.212;2023-12-20T02:51:12;6.25;6.25;5.00
84339;PMS7003;74521;45.618;5.212;2023-12-20T02:53:38;7.00;7.00;4.25
84339;PMS7003;74521;45.618;5.212;2023-12-20T02:56:07;9.50;6.75;5.00
84339;PMS7003;74521;45.618;5.212;2023-12-20T02:58:33;7.50;6.00;5.00
84339;PMS7003;74521;45.618;5.212;2023-12-20T03:01:00;8.00;6.50;4.75
84339;PMS7003;74521;45.618;5.212;2023-12-20T03:03:26;13.00;6.50;5.00
84339;PMS7003;74521;45.618;5.212;2023-12-20T03:05:53;6.50;6.25;5.00
84339;PMS7003;74521;45.618;5.212;2023-12-20T03:08:20;7.00;5.50;4.00
84339;PMS7003;74521;45.618;5.212;2023-12-20T03:10:46;7.75;7.00;5.00
84339;PMS7003;74521;45.618;5.212;2023-12-20T03:16:36;5.75;0.50;0.00
84339;PMS7003;74521;45.618;5.212;2023-12-20T03:19:03;7.00;4.50;4.00
84339;PMS7003;74521;45.618;5.212;2023-12-20T03:21:29;6.25;6.00;5.00
84339;PMS7003;74521;45.618;5.212;2023-12-20T03:23:56;7.00;6.25;5.00
84339;PMS7003;74521;45.618;5.212;2023-12-20T03:26:22;6.00;6.00;4.25
84339;PMS7003;74521;45.618;5.212;2023-12-20T03:28:49;7.50;6.00;5.00
84339;PMS7003;74521;45.618;5.212;2023-12-20T03:31:16;7.00;6.00;5.00
84339;PMS7003;74521;45.618;5.212;2023-12-20T03:33:44;6.00;6.00;5.00
84339;PMS7003;74521;45.618;5.212;2023-12-20T03:36:10;6.25;6.25;4.75
84339;PMS7003;74521;45.618;5.212;2023-12-20T03:38:37;9.50;6.00;4.50
84339;PMS7003;74521;45.618;5.212;2023-12-20T03:41:04;7.25;5.75;4.00
84339;PMS7003;74521;45.618;5.212;2023-12-20T03:43:30;7.25;6.00;5.00
84339;PMS7003;74521;45.618;5.212;2023-12-20T03:45:56;9.50;7.00;4.75
84339;PMS7003;74521;45.618;5.212;2023-12-20T03:48:23;6.25;4.00;2.75
84339;PMS7003;74521;45.618;5.212;2023-12-20T03:50:51;8.25;6.00;4.00
84339;PMS7003;74521;45.618;5.212;2023-12-20T03:53:18;8.00;7.00;5.00
84339;PMS7003;74521;45.618;5.212;2023-12-20T03:55:44;6.25;5.75;4.00
84339;PMS7003;74521;45.618;5.212;2023-12-20T03:58:11;6.00;5.25;4.25
84339;PMS7003;74521;45.618;5.212;2023-12-20T04:00:38;9.00;7.75;5.00
84339;PMS7003;74521;45.618;5.212;2023-12-20T04:03:05;8.25;5.00;4.00
84339;PMS7003;74521;45.618;5.212;2023-12-20T04:05:31;8.25;6.25;4.25
84339;PMS7003;74521;45.618;5.212;2023-12-20T04:07:59;10.50;7.50;4.50
84339;PMS7003;74521;45.618;5.212;2023-12-20T04:10:28;8.25;6.50;4.75
84339;PMS7003;74521;45.618;5.212;2023-12-20T04:12:54;6.75;6.75;5.00
84339;PMS7003;74521;45.618;5.212;2023-12-20T04:15:21;4.75;4.75;3.00
84339;PMS7003;74521;45.618;5.212;2023-12-20T04:17:48;4.75;4.75;3.75
84339;PMS7003;74521;45.618;5.212;2023-12-20T04:20:14;5.00;5.00;4.00
84339;PMS7003;74521;45.618;5.212;2023-12-20T04:22:41;7.00;4.25;3.00
84339;PMS7003;74521;45.618;5.212;2023-12-20T04:25:09;6.50;6.50;4.50
84339;PMS7003;74521;45.618;5.212;2023-12-20T04:27:36;6.50;6.00;4.50
84339;PMS7003;74521;45.618;5.212;2023-12-20T04:30:03;7.00;6.00;4.50
84339;PMS7003;74521;45.618;5.212;2023-12-20T04:32:30;4.75;4.75;3.00
84339;PMS7003;74521;45.618;5.212;2023-12-20T04:34:57;7.00;7.00;4.50
84339;PMS7003;74521;45.618;5.212;2023-12-20T04:37:23;7.00;5.50;4.25
84339;PMS7003;74521;45.618;5.212;2023-12-20T04:39:50;4.25;4.25;4.00
84339;PMS7003;74521;45.618;5.212;2023-12-20T04:42:18;7.25;6.75;4.50
84339;PMS7003;74521;45.618;5.212;2023-12-20T04:44:44;6.75;5.00;4.00
84339;PMS7003;74521;45.618;5.212;2023-12-20T04:47:11;8.50;6.00;5.00
84339;PMS7003;74521;45.618;5.212;2023-12-20T04:49:38;6.25;6.00;4.00
84339;PMS7003;74521;45.618;5.212;2023-12-20T04:52:04;8.00;5.75;4.75
84339;PMS7003;74521;45.618;5.212;2023-12-20T04:54:32;5.75;5.75;4.00
84339;PMS7003;74521;45.618;5.212;2023-12-20T04:56:58;7.00;7.00;5.50
84339;PMS7003;74521;45.618;5.212;2023-12-20T04:59:26;7.25;6.00;4.50
84339;PMS7003;74521;45.618;5.212;2023-12-20T05:01:53;5.00;5.00;4.25
84339;PMS7003;74521;45.618;5.212;2023-12-20T05:04:19;6.25;6.25;4.75
84339;PMS7003;74521;45.618;5.212;2023-12-20T05:06:46;7.50;6.50;5.00
84339;PMS7003;74521;45.618;5.212;2023-12-20T05:09:14;6.25;6.00;4.75
84339;PMS7003;74521;45.618;5.212;2023-12-20T05:11:41;6.25;5.00;3.25
84339;PMS7003;74521;45.618;5.212;2023-12-20T05:14:08;8.75;5.25;4.00
84339;PMS7003;74521;45.618;5.212;2023-12-20T05:16:36;11.00;5.00;4.00
84339;PMS7003;74521;45.618;5.212;2023-12-20T05:19:02;5.50;5.50;4.00
84339;PMS7003;74521;45.618;5.212;2023-12-20T05:21:31;5.00;5.00;3.50
84339;PMS7003;74521;45.618;5.212;2023-12-20T05:23:58;4.75;4.75;3.25
84339;PMS7003;74521;45.618;5.212;2023-12-20T05:26:25;6.50;6.00;4.00
84339;PMS7003;74521;45.618;5.212;2023-12-20T05:28:51;6.00;5.75;5.00
84339;PMS7003;74521;45.618;5.212;2023-12-20T05:31:18;5.25;5.25;4.00
84339;PMS7003;74521;45.618;5.212;2023-12-20T05:33:45;7.00;5.00;4.00
84339;PMS7003;74521;45.618;5.212;2023-12-20T05:36:12;5.00;5.00;3.75
84339;PMS7003;74521;45.618;5.212;2023-12-20T05:38:40;8.00;6.25;4.25
84339;PMS7003;74521;45.618;5.212;2023-12-20T05:41:06;5.00;5.00;3.75
84339;PMS7003;74521;45.618;5.212;2023-12-20T05:43:33;6.50;5.50;4.25
84339;PMS7003;74521;45.618;5.212;2023-12-20T05:46:00;7.25;6.75;4.25
84339;PMS7003;74521;45.618;5.212;2023-12-20T05:48:26;8.75;5.50;5.00
84339;PMS7003;74521;45.618;5.212;2023-12-20T05:50:54;6.00;6.00;5.00
84339;PMS7003;74521;45.618;5.212;2023-12-20T05:53:21;7.25;6.00;4.75
84339;PMS7003;74521;45.618;5.212;2023-12-20T05:55:48;8.00;6.75;5.00
84339;PMS7003;74521;45.618;5.212;2023-12-20T05:58:14;8.00;6.25;5.00
84339;PMS7003;74521;45.618;5.212;2023-12-20T06:00:41;9.25;6.00;5.00
84339;PMS7003;74521;45.618;5.212;2023-12-20T06:03:08;6.75;6.75;5.50
84339;PMS7003;74521;45.618;5.212;2023-12-20T06:05:34;7.00;7.00;5.50
84339;PMS7003;74521;45.618;5.212;2023-12-20T06:08:02;7.25;6.75;5.75
84339;PMS7003;74521;45.618;5.212;2023-12-20T06:10:29;10.00;6.50;5.00
84339;PMS7003;74521;45.618;5.212;2023-12-20T06:12:56;10.00;6.75;5.50
84339;PMS7003;74521;45.618;5.212;2023-12-20T06:15:24;13.50;7.00;5.25
84339;PMS7003;74521;45.618;5.212;2023-12-20T06:17:50;9.00;8.00;6.00
84339;PMS7003;74521;45.618;5.212;2023-12-20T06:20:17;10.25;7.00;6.00
84339;PMS7003;74521;45.618;5.212;2023-12-20T06:22:43;10.00;8.00;6.00
84339;PMS7003;74521;45.618;5.212;2023-12-20T06:25:11;14.25;6.50;5.00
84339;PMS7003;74521;45.618;5.212;2023-12-20T06:27:38;9.75;9.75;7.50
84339;PMS7003;74521;45.618;5.212;2023-12-20T06:30:06;8.00;7.00;5.00
84339;PMS7003;74521;45.618;5.212;2023-12-20T06:32:34;13.75;8.25;6.25
84339;PMS7003;74521;45.618;5.212;2023-12-20T06:35:00;11.50;10.00;7.00
84339;PMS7003;74521;45.618;5.212;2023-12-20T06:37:27;9.50;7.75;6.00
84339;PMS7003;74521;45.618;5.212;2023-12-20T06:39:54;9.00;8.75;7.00
84339;PMS7003;74521;45.618;5.212;2023-12-20T06:42:23;8.25;7.00;5.25
84339;PMS7003;74521;45.618;5.212;2023-12-20T06:44:49;9.00;9.00;7.00
84339;PMS7003;74521;45.618;5.212;2023-12-20T06:47:16;12.00;9.50;6.25
84339;PMS7003;74521;45.618;5.212;2023-12-20T06:49:43;10.00;8.75;6.00
84339;PMS7003;74521;45.618;5.212;2023-12-20T06:52:09;11.75;10.00;8.00
84339;PMS7003;74521;45.618;5.212;2023-12-20T06:54:36;13.00;10.75;7.25
84339;PMS7003;74521;45.618;5.212;2023-12-20T06:57:03;12.00;9.50;5.25
84339;PMS7003;74521;45.618;5.212;2023-12-20T06:59:31;10.00;10.00;7.25
84339;PMS7003;74521;45.618;5.212;2023-12-20T07:01:58;13.00;9.75;7.75
84339;PMS7003;74521;45.618;5.212;2023-12-20T07:04:24;14.00;11.75;7.50
84339;PMS7003;74521;45.618;5.212;2023-12-20T07:06:51;9.75;9.00;6.25
84339;PMS7003;74521;45.618;5.212;2023-12-20T07:09:21;11.25;8.75;6.50
84339;PMS7003;74521;45.618;5.212;2023-12-20T07:11:48;10.25;9.25;6.75
84339;PMS7003;74521;45.618;5.212;2023-12-20T07:14:15;12.75;8.25;7.00
84339;PMS7003;74521;45.618;5.212;2023-12-20T07:16:43;10.50;8.50;5.75
84339;PMS7003;74521;45.618;5.212;2023-12-20T07:19:09;11.50;11.00;7.00
84339;PMS7003;74521;45.618;5.212;2023-12-20T07:21:36;7.75;7.75;5.00
84339;PMS7003;74521;45.618;5.212;2023-12-20T07:24:03;12.75;10.50;6.00
84339;PMS7003;74521;45.618;5.212;2023-12-20T07:26:29;11.50;9.00;7.25
84339;PMS7003;74521;45.618;5.212;2023-12-20T07:28:56;11.75;8.50;7.25
84339;PMS7003;74521;45.618;5.212;2023-12-20T07:31:23;9.50;8.00;6.50
84339;PMS7003;74521;45.618;5.212;2023-12-20T07:33:51;11.50;9.00;6.50
84339;PMS7003;74521;45.618;5.212;2023-12-20T07:36:19;13.50;7.75;6.50
84339;PMS7003;74521;45.618;5.212;2023-12-20T07:38:46;9.00;8.50;6.00
84339;PMS7003;74521;45.618;5.212;2023-12-20T07:41:13;9.75;7.75;6.00
84339;PMS7003;74521;45.618;5.212;2023-12-20T07:43:40;8.00;8.00;5.00
84339;PMS7003;74521;45.618;5.212;2023-12-20T07:46:08;10.25;9.00;6.25
84339;PMS7003;74521;45.618;5.212;2023-12-20T07:48:35;8.50;7.00;5.75
84339;PMS7003;74521;45.618;5.212;2023-12-20T07:51:03;6.75;6.25;5.00
84339;PMS7003;74521;45.618;5.212;2023-12-20T07:53:30;7.25;7.25;6.00
84339;PMS7003;74521;45.618;5.212;2023-12-20T07:55:57;9.25;6.25;5.00
84339;PMS7003;74521;45.618;5.212;2023-12-20T07:58:24;5.00;4.50;3.75
84339;PMS7003;74521;45.618;5.212;2023-12-20T08:00:51;9.00;9.00;7.00
84339;PMS7003;74521;45.618;5.212;2023-12-20T08:03:17;12.00;9.00;7.25
84339;PMS7003;74521;45.618;5.212;2023-12-20T08:05:44;9.00;9.00;6.50
84339;PMS7003;74521;45.618;5.212;2023-12-20T08:08:12;10.25;7.50;6.00
84339;PMS7003;74521;45.618;5.212;2023-12-20T08:10:39;9.00;7.50;5.00
84339;PMS7003;74521;45.618;5.212;2023-12-20T08:13:05;12.00;8.50;6.00
84339;PMS7003;74521;45.618;5.212;2023-12-20T08:15:33;7.00;7.00;5.00
84339;PMS7003;74521;45.618;5.212;2023-12-20T08:18:00;6.75;6.00;4.50
84339;PMS7003;74521;45.618;5.212;2023-12-20T08:20:26;11.75;9.00;6.00
84339;PMS7003;74521;45.618;5.212;2023-12-20T08:22:53;9.00;7.50;6.50
84339;PMS7003;74521;45.618;5.212;2023-12-20T08:25:21;9.75;8.00;6.25
84339;PMS7003;74521;45.618;5.212;2023-12-20T08:27:48;8.75;8.25;6.00
84339;PMS7003;74521;45.618;5.212;2023-12-20T08:30:14;7.00;7.00;5.25
84339;PMS7003;74521;45.618;5.212;2023-12-20T08:32:42;10.00;6.00;5.00
84339;PMS7003;74521;45.618;5.212;2023-12-20T08:35:09;13.75;10.50;8.00
84339;PMS7003;74521;45.618;5.212;2023-12-20T08:37:36;17.50;11.25;7.00
84339;PMS7003;74521;45.618;5.212;2023-12-20T08:40:02;21.50;15.00;8.75
84339;PMS7003;74521;45.618;5.212;2023-12-20T08:42:31;25.75;13.00;8.75
84339;PMS7003;74521;45.618;5.212;2023-12-20T08:44:58;17.75;12.50;7.25
84339;PMS7003;74521;45.618;5.212;2023-12-20T08:47:24;21.75;12.50;6.75
84339;PMS7003;74521;45.618;5.212;2023-12-20T08:49:51;19.25;13.00;8.50
84339;PMS7003;74521;45.618;5.212;2023-12-20T08:52:21;15.25;13.25;7.00
84339;PMS7003;74521;45.618;5.212;2023-12-20T08:54:48;13.00;11.00;7.00
84339;PMS7003;74521;45.618;5.212;2023-12-20T08:57:16;14.75;11.00;6.50
84339;PMS7003;74521;45.618;5.212;2023-12-20T08:59:46;14.00;11.00;6.00
84339;PMS7003;74521;45.618;5.212;2023-12-20T09:02:13;13.50;10.25;7.00
84339;PMS7003;74521;45.618;5.212;2023-12-20T09:04:40;16.00;9.50;6.25
84339;PMS7003;74521;45.618;5.212;2023-12-20T09:07:07;11.50;10.25;8.25
84339;PMS7003;74521;45.618;5.212;2023-12-20T09:09:46;17.25;11.75;7.00
84339;PMS7003;74521;45.618;5.212;2023-12-20T09:12:13;15.00;8.25;5.00
84339;PMS7003;74521;45.618;5.212;2023-12-20T09:14:40;16.00;10.25;6.75
84339;PMS7003;74521;45.618;5.212;2023-12-20T09:17:08;15.00;8.75;5.00
84339;PMS7003;74521;45.618;5.212;2023-12-20T09:19:36;12.00;8.50;5.00
84339;PMS7003;74521;45.618;5.212;2023-12-20T09:22:03;13.50;9.00;7.00
84339;PMS7003;74521;45.618;5.212;2023-12-20T09:24:30;20.00;9.25;6.00
84339;PMS7003;74521;45.618;5.212;2023-12-20T09:26:57;9.75;8.50;5.00
84339;PMS7003;74521;45.618;5.212;2023-12-20T09:29:23;13.75;9.50;6.00
84339;PMS7003;74521;45.618;5.212;2023-12-20T09:31:50;10.75;7.50;5.75
84339;PMS7003;74521;45.618;5.212;2023-12-20T09:34:18;9.75;8.00;5.50
84339;PMS7003;74521;45.618;5.212;2023-12-20T09:36:45;12.25;8.75;6.00
84339;PMS7003;74521;45.618;5.212;2023-12-20T09:39:12;8.00;7.50;5.50
84339;PMS7003;74521;45.618;5.212;2023-12-20T09:41:41;9.75;8.00;5.00
84339;PMS7003;74521;45.618;5.212;2023-12-20T09:44:12;8.00;8.00;6.00
84339;PMS7003;74521;45.618;5.212;2023-12-20T09:46:43;12.00;7.75;5.50
84339;PMS7003;74521;45.618;5.212;2023-12-20T09:49:10;12.75;6.25;4.75
84339;PMS7003;74521;45.618;5.212;2023-12-20T09:51:39;9.25;5.75;4.00
84339;PMS7003;74521;45.618;5.212;2023-12-20T09:54:07;9.00;8.75;5.00
84339;PMS7003;74521;45.618;5.212;2023-12-20T09:56:35;8.00;4.50;3.50
84339;PMS7003;74521;45.618;5.212;2023-12-20T09:59:03;8.25;4.50;3.00
84339;PMS7003;74521;45.618;5.212;2023-12-20T10:01:30;8.00;4.50;3.00
84339;PMS7003;74521;45.618;5.212;2023-12-20T10:03:58;10.50;8.00;4.50
84339;PMS7003;74521;45.618;5.212;2023-12-20T10:06:26;8.25;5.00;4.00
84339;PMS7003;74521;45.618;5.212;2023-12-20T10:08:54;8.25;6.50;5.25
84339;PMS7003;74521;45.618;5.212;2023-12-20T10:11:21;10.75;8.25;5.00
84339;PMS7003;74521;45.618;5.212;2023-12-20T10:13:48;9.00;6.25;4.25
84339;PMS7003;74521;45.618;5.212;2023-12-20T10:16:15;6.75;6.75;5.00
84339;PMS7003;74521;45.618;5.212;2023-12-20T10:18:42;11.25;8.00;5.00
84339;PMS7003;74521;45.618;5.212;2023-12-20T10:21:09;9.50;5.25;4.25
84339;PMS7003;74521;45.618;5.212;2023-12-20T10:23:36;8.00;5.25;3.50
84339;PMS7003;74521;45.618;5.212;2023-12-20T10:26:05;6.00;5.50;4.00
84339;PMS7003;74521;45.618;5.212;2023-12-20T10:28:32;7.00;5.50;4.25
84339;PMS7003;74521;45.618;5.212;2023-12-20T10:31:00;6.75;5.00;4.25
84339;PMS7003;74521;45.618;5.212;2023-12-20T10:33:27;5.75;5.75;3.75
84339;PMS7003;74521;45.618;5.212;2023-12-20T10:35:55;5.75;5.00;3.00
84339;PMS7003;74521;45.618;5.212;2023-12-20T10:38:22;7.25;4.25;3.25
84339;PMS7003;74521;45.618;5.212;2023-12-20T10:40:49;6.25;6.25;5.00
84339;PMS7003;74521;45.618;5.212;2023-12-20T10:43:24;5.00;5.00;4.00
84339;PMS7003;74521;45.618;5.212;2023-12-20T10:45:52;5.25;3.50;3.00
84339;PMS7003;74521;45.618;5.212;2023-12-20T10:48:19;8.00;4.50;3.00
84339;PMS7003;74521;45.618;5.212;2023-12-20T10:50:52;9.75;5.50;3.75
84339;PMS7003;74521;45.618;5.212;2023-12-20T10:53:20;8.25;3.50;3.00
84339;PMS7003;74521;45.618;5.212;2023-12-20T10:55:48;8.00;5.00;4.00
84339;PMS7003;74521;45.618;5.212;2023-12-20T10:58:18;5.25;5.00;4.00
84339;PMS7003;74521;45.618;5.212;2023-12-20T11:00:49;6.00;5.00;4.00
84339;PMS7003;74521;45.618;5.212;2023-12-20T11:03:26;6.00;4.00;3.25
84339;PMS7003;74521;45.618;5.212;2023-12-20T11:05:55;6.50;5.00;4.00
84339;PMS7003;74521;45.618;5.212;2023-12-20T11:08:27;7.00;5.25;4.75
84339;PMS7003;74521;45.618;5.212;2023-12-20T11:10:59;6.00;5.00;4.00
84339;PMS7003;74521;45.618;5.212;2023-12-20T11:13:31;4.50;4.50;4.00
84339;PMS7003;74521;45.618;5.212;2023-12-20T11:16:03;5.25;5.25;4.00
84339;PMS7003;74521;45.618;5.212;2023-12-20T11:18:31;8.75;5.25;3.25
84339;PMS7003;74521;45.618;5.212;2023-12-20T11:21:00;6.50;4.00;3.00
84339;PMS7003;74521;45.618;5.212;2023-12-20T11:23:29;5.75;3.75;3.00
84339;PMS7003;74521;45.618;5.212;2023-12-20T11:25:56;8.75;4.00;3.75
84339;PMS7003;74521;45.618;5.212;2023-12-20T11:28:24;8.00;4.75;3.00
84339;PMS7003;74521;45.618;5.212;2023-12-20T11:30:53;8.75;4.00;3.00
84339;PMS7003;74521;45.618;5.212;2023-12-20T11:33:23;3.25;3.25;2.50
84339;PMS7003;74521;45.618;5.212;2023-12-20T11:35:51;4.25;4.00;3.00
84339;PMS7003;74521;45.618;5.212;2023-12-20T11:38:19;8.00;4.00;3.00
84339;PMS7003;74521;45.618;5.212;2023-12-20T11:40:47;7.50;4.25;2.00
84339;PMS7003;74521;45.618;5.212;2023-12-20T11:43:29;4.00;4.00;3.00
84339;PMS7003;74521;45.618;5.212;2023-12-20T11:45:56;6.50;3.25;3.00
84339;PMS7003;74521;45.618;5.212;2023-12-20T11:48:31;3.50;3.00;2.00
84339;PMS7003;74521;45.618;5.212;2023-12-20T11:50:58;3.75;2.00;2.00
84339;PMS7003;74521;45.618;5.212;2023-12-20T11:53:25;7.00;4.00;2.75
84339;PMS7003;74521;45.618;5.212;2023-12-20T11:55:55;4.75;4.00;3.00
84339;PMS7003;74521;45.618;5.212;2023-12-20T11:58:22;3.25;3.00;3.00
84339;PMS7003;74521;45.618;5.212;2023-12-20T12:00:49;4.00;4.00;3.00
84339;PMS7003;74521;45.618;5.212;2023-12-20T12:03:16;4.25;4.25;3.50
84339;PMS7003;74521;45.618;5.212;2023-12-20T12:05:44;3.00;3.00;2.00
84339;PMS7003;74521;45.618;5.212;2023-12-20T12:08:13;5.00;3.25;2.00
84339;PMS7003;74521;45.618;5.212;2023-12-20T12:10:40;5.25;4.25;3.25
84339;PMS7003;74521;45.618;5.212;2023-12-20T12:13:07;6.00;3.75;3.00
84339;PMS7003;74521;45.618;5.212;2023-12-20T12:15:34;2.25;2.25;2.00
84339;PMS7003;74521;45.618;5.212;2023-12-20T12:18:01;6.25;4.00;3.00
84339;PMS7003;74521;45.618;5.212;2023-12-20T12:20:28;4.00;4.00;3.00
84339;PMS7003;74521;45.618;5.212;2023-12-20T12:23:00;2.50;2.00;1.75
84339;PMS7003;74521;45.618;5.212;2023-12-20T12:25:28;3.00;3.00;2.25
84339;PMS7003;74521;45.618;5.212;2023-12-20T12:27:55;4.75;2.75;2.50
84339;PMS7003;74521;45.618;5.212;2023-12-20T12:30:22;4.25;4.00;2.25
84339;PMS7003;74521;45.618;5.212;2023-12-20T12:32:48;3.25;2.75;2.00
84339;PMS7003;74521;45.618;5.212;2023-12-20T12:35:16;3.50;2.50;2.00
84339;PMS7003;74521;45.618;5.212;2023-12-20T12:37:43;4.25;2.25;2.25
84339;PMS7003;74521;45.618;5.212;2023-12-20T12:40:12;3.00;3.00;2.00
84339;PMS7003;74521;45.618;5.212;2023-12-20T12:42:40;1.75;1.75;1.50
84339;PMS7003;74521;45.618;5.212;2023-12-20T12:45:08;3.00;3.00;2.25
84339;PMS7003;74521;45.618;5.212;2023-12-20T12:47:36;3.25;2.00;1.25
84339;PMS7003;74521;45.618;5.212;2023-12-20T12:50:03;2.25;2.00;2.00
84339;PMS7003;74521;45.618;5.212;2023-12-20T12:52:30;3.00;2.00;2.00
84339;PMS7003;74521;45.618;5.212;2023-12-20T12:54:57;4.75;2.75;2.00
84339;PMS7003;74521;45.618;5.212;2023-12-20T12:57:25;2.50;2.50;2.00
84339;PMS7003;74521;45.618;5.212;2023-12-20T12:59:52;5.25;3.50;2.00
84339;PMS7003;74521;45.618;5.212;2023-12-20T13:02:18;4.75;3.25;2.00
84339;PMS7003;74521;45.618;5.212;2023-12-20T13:04:45;2.75;2.75;2.00
84339;PMS7003;74521;45.618;5.212;2023-12-20T13:07:12;3.50;2.00;1.00
84339;PMS7003;74521;45.618;5.212;2023-12-20T13:09:39;3.00;3.00;2.00
84339;PMS7003;74521;45.618;5.212;2023-12-20T13:12:06;2.50;2.00;1.25
84339;PMS7003;74521;45.618;5.212;2023-12-20T13:14:35;2.00;2.00;1.25
84339;PMS7003;74521;45.618;5.212;2023-12-20T13:17:02;2.00;2.00;1.75
84339;PMS7003;74521;45.618;5.212;2023-12-20T13:19:29;9.00;2.00;1.00
84339;PMS7003;74521;45.618;5.212;2023-12-20T13:21:56;3.50;3.00;2.00
84339;PMS7003;74521;45.618;5.212;2023-12-20T13:24:23;3.50;3.50;3.00
84339;PMS7003;74521;45.618;5.212;2023-12-20T13:26:50;1.00;1.00;1.00
84339;PMS7003;74521;45.618;5.212;2023-12-20T13:29:17;2.00;2.00;1.50
84339;PMS7003;74521;45.618;5.212;2023-12-20T13:31:44;3.50;3.50;2.00
84339;PMS7003;74521;45.618;5.212;2023-12-20T13:34:11;2.00;2.00;1.75
84339;PMS7003;74521;45.618;5.212;2023-12-20T13:36:38;2.00;2.00;2.00
84339;PMS7003;74521;45.618;5.212;2023-12-20T13:39:04;2.00;0.25;0.25
84339;PMS7003;74521;45.618;5.212;2023-12-20T13:41:32;3.50;2.75;2.00
84339;PMS7003;74521;45.618;5.212;2023-12-20T13:43:58;2.00;2.00;2.00
84339;PMS7003;74521;45.618;5.212;2023-12-20T13:46:26;1.75;1.75;1.50
84339;PMS7003;74521;45.618;5.212;2023-12-20T13:48:54;2.00;2.00;1.25
84339;PMS7003;74521;45.618;5.212;2023-12-20T13:51:21;3.50;2.00;2.00
84339;PMS7003;74521;45.618;5.212;2023-12-20T13:53:48;3.00;1.25;1.00
84339;PMS7003;74521;45.618;5.212;2023-12-20T13:56:15;2.00;2.00;1.25
84339;PMS7003;74521;45.618;5.212;2023-12-20T13:58:41;4.00;2.00;2.00
84339;PMS7003;74521;45.618;5.212;2023-12-20T14:01:08;3.00;1.50;1.25
84339;PMS7003;74521;45.618;5.212;2023-12-20T14:03:35;2.50;2.00;1.50
84339;PMS7003;74521;45.618;5.212;2023-12-20T14:06:04;2.00;2.00;1.75
84339;PMS7003;74521;45.618;5.212;2023-12-20T14:08:31;2.00;2.00;2.00
84339;PMS7003;74521;45.618;5.212;2023-12-20T14:10:57;2.00;2.00;2.00
84339;PMS7003;74521;45.618;5.212;2023-12-20T14:13:26;1.00;1.00;1.00
84339;PMS7003;74521;45.618;5.212;2023-12-20T14:15:52;1.25;1.00;1.00
84339;PMS7003;74521;45.618;5.212;2023-12-20T14:18:19;2.25;1.00;1.00
84339;PMS7003;74521;45.618;5.212;2023-12-20T14:20:46;1.00;1.00;1.00
84339;PMS7003;74521;45.618;5.212;2023-12-20T14:23:17;1.00;1.00;1.00